Terminal Aerodrome Forecast
Issued by NWS Sioux Falls, SD

Home | Current Version | Previous Version | Text Only | Print | Product List | Glossary On
Versions: 1 2 3 4 5 6 7 8 9 10 11 12 13 14 15 16 17 18 19 20 21 22 23 24
000
FTUS43 KFSD 291150
TAFHON
TAF
KHON 291150Z 2912/3012 33003KT 4SM BR OVC002
     FM291400 31003KT 6SM BR OVC006
     FM291600 32005KT P6SM SCT015
     FM292300 34007KT P6SM BKN080
      TEMPO 3000/3002 SHRA BKN050
     FM300400 35005KT P6SM SCT050
     FM300900 01005KT 3SM BR SCT007=

USA.gov is the U.S. government's official web portal to all federal, state and local government web resources and services.